Latest Weather Observations for Jacup

IDW60801

Issued at 9:33 am WST Thursday 21 November 2019 (issued every 10 minutes, with the page automatically refreshed every 10 minutes)

About weather observations | Map of weather stations | Latest weather observations for WA | Other Formats
Station Details ID: 010905 Name: JACUP Lat: -33.89 Lon: 119.11 Height: 305.0 m
Data from the previous 72 hours. | See also: Recent months at Jacup
Date/Time
WST
Temp
°C
App
Temp
°C
Dew
Point
°C
Rel
Hum
%
Delta-T
°C
Wind Press
QNH
hPa
Press
MSL
hPa
Rain since
9am
mm
Dir  Spd
km/h
Gust
km/h
Spd
kts
Gust
kts
21/09:30am 17.2 12.6 3.5 40 6.4 WNW 17 32 9 17 1019.7 1019.0 0.0
21/09:00am 15.9 12.0 3.4 43 5.8 WNW 13 24 7 13 1019.9 1019.2 0.2
21/08:30am 15.4 10.4 3.5 45 5.5 WNW 19 28 10 15 1020.3 1019.6 0.2
21/08:00am 13.5 9.6 3.3 50 4.6 WNW 13 20 7 11 1020.2 1019.5 0.2
21/07:30am 12.8 8.5 3.5 53 4.2 WSW 15 24 8 13 1020.5 1019.9 0.2
21/07:00am 12.3 8.5 4.0 57 3.8 SW 13 20 7 11 1020.4 1019.7 0.2
21/06:30am 10.5 6.6 3.3 61 3.2 SW 13 20 7 11 1020.1 1019.4 0.2
21/06:00am 9.1 5.6 3.5 68 2.5 SW 11 17 6 9 1019.8 1019.1 0.2
21/05:30am 6.5 2.5 2.8 77 1.6 SW 13 17 7 9 1019.3 1018.6 0.2
21/05:00am 5.1 1.4 2.1 81 1.2 SW 11 13 6 7 1018.7 1018.0 0.2
21/04:30am 4.8 1.0 1.8 81 1.2 SW 11 13 6 7 1018.4 1017.7 0.2
21/04:00am 4.3 0.5 1.8 84 1.0 SW 11 13 6 7 1018.0 1017.3 0.2
21/03:30am 2.8 -0.6 -0.3 80 1.2 SW 7 9 4 5 1017.9 1017.2 0.2
21/03:00am 5.1 2.2 2.8 85 1.0 SW 7 9 4 5 1017.9 1017.2 0.2
21/02:30am 3.7 0.6 1.3 84 0.9 SW 7 9 4 5 1018.0 1017.3 0.2
21/02:00am 4.1 1.2 1.3 82 1.1 SW 6 6 3 3 1018.1 1017.4 0.2
21/01:30am 5.0 2.0 2.0 81 1.2 SW 7 7 4 4 1018.4 1017.7 0.2
21/01:00am 5.3 2.2 1.6 77 1.5 SW 7 11 4 6 1018.8 1018.1 0.2
21/12:30am 6.6 3.7 2.5 75 1.7 SW 7 11 4 6 1018.9 1018.2 0.2
21/12:00am 7.4 4.6 2.9 73 1.9 SW 7 9 4 5 1019.2 1018.5 0.2
 
Date/Time
WST
Temp
°C
App
Temp
°C
Dew
Point
°C
Rel
Hum
%
Delta-T
°C
Wind Press
QNH
hPa
Press
MSL
hPa
Rain since
9am
mm
Dir  Spd
km/h
Gust
km/h
Spd
kts
Gust
kts
20/11:30pm 7.4 3.9 3.3 75 1.8 SW 11 15 6 8 1019.3 1018.6 0.2
20/11:00pm 7.3 4.5 3.0 74 1.8 SSW 7 11 4 6 1019.7 1019.0 0.2
20/10:30pm 7.9 4.8 3.4 73 2.0 SW 9 15 5 8 1019.6 1018.9 0.2
20/10:00pm 8.2 4.4 4.0 75 1.8 SSW 13 17 7 9 1019.6 1018.9 0.2
20/09:30pm 7.7 4.6 3.7 76 1.7 SSW 9 11 5 6 1019.5 1018.8 0.2
20/09:00pm 8.4 5.0 4.2 75 1.9 S 11 11 6 6 1019.4 1018.7 0.2
20/08:30pm 9.4 6.1 4.8 73 2.1 S 11 15 6 8 1019.0 1018.3 0.2
20/08:00pm 9.6 6.7 4.6 71 2.3 S 9 11 5 6 1018.6 1017.9 0.2
20/07:30pm 11.1 8.4 5.6 69 2.6 SSE 9 13 5 7 1018.3 1017.6 0.2
20/07:00pm 12.0 8.2 5.9 66 2.9 S 15 24 8 13 1017.9 1017.2 0.2
20/06:30pm 13.4 8.4 4.6 55 4.1 S 20 33 11 18 1017.3 1016.6 0.2
20/06:00pm 14.3 9.4 4.3 51 4.7 S 19 33 10 18 1016.7 1016.0 0.2
20/05:30pm 15.3 9.5 4.4 48 5.2 S 24 35 13 19 1016.3 1015.6 0.2
20/05:00pm 15.5 9.7 4.3 47 5.3 SSW 24 35 13 19 1016.0 1015.3 0.2
20/04:30pm 16.2 8.7 1.5 37 6.6 SSW 30 46 16 25 1015.5 1014.8 0.2
20/04:00pm 17.3 10.1 0.9 33 7.3 SSW 28 52 15 28 1015.0 1014.3 0.2
20/03:58pm 17.3 10.2 1.3 34 7.2 SSW 28 52 15 28 1015.0 1014.3 0.2
20/03:30pm 17.3 10.3 2.1 36 7.0 SW 28 44 15 24 1014.7 1013.9 0.2
20/03:00pm 14.0 6.7 5.4 56 4.1 SW 33 54 18 29 1014.6 1013.8 0.2
20/02:33pm 17.4 9.0 1.8 35 7.1 SW 35 54 19 29 1013.8 1013.1 0.2
20/02:30pm 17.7 9.4 2.1 35 7.2 SW 35 52 19 28 1013.8 1013.1 0.2
20/02:00pm 16.9 8.9 1.4 35 7.0 SW 33 56 18 30 1013.5 1012.8 0.2
20/01:30pm 15.6 6.4 1.4 38 6.3 SW 39 57 21 31 1013.3 1012.6 0.2
20/01:19pm 16.0 9.3 3.4 43 5.9 SW 28 61 15 33 1013.0 1012.3 0.2
20/01:00pm 16.2 10.1 2.6 40 6.2 SW 24 37 13 20 1012.8 1012.1 0.2
20/12:30pm 13.4 3.7 2.9 49 4.7 SSW 43 61 23 33 1012.7 1012.0 0.2
20/12:05pm 17.4 10.6 3.0 38 6.7 WSW 28 46 15 25 1012.2 1011.5 0.2
20/12:00pm 16.1 9.8 3.5 43 5.9 SW 26 39 14 21 1012.3 1011.6 0.2
20/11:33am 14.2 6.6 3.1 47 5.1 SW 32 69 17 37 1012.1 1011.4 0.0
20/11:30am 16.4 10.1 1.7 37 6.6 SW 24 50 13 27 1011.7 1010.9 0.0
20/11:02am 16.1 8.8 2.2 39 6.3 SW 30 48 16 26 1011.6 1010.8 0.0
20/11:00am 16.4 8.6 1.7 37 6.6 SW 32 48 17 26 1011.6 1010.8 0.0
20/10:30am 17.0 10.3 3.7 41 6.3 SW 28 46 15 25 1011.4 1010.6 0.0
20/10:00am 14.1 7.3 4.9 54 4.4 SW 30 52 16 28 1011.0 1010.2 0.0
20/09:30am 15.4 9.1 7.4 59 4.0 WSW 30 50 16 27 1010.7 1009.9 0.0
20/09:00am 14.1 8.7 9.5 74 2.4 WSW 28 50 15 27 1010.3 1009.6 0.6
20/08:30am 10.8 4.2 7.9 82 1.4 WSW 32 54 17 29 1010.1 1009.4 0.4
20/08:26am 11.6 5.8 8.1 79 1.7 W 28 52 15 28 1010.1 1009.4 0.4
20/08:00am 13.5 8.1 9.6 77 2.0 WSW 28 39 15 21 1009.5 1008.8 0.0
20/07:39am 13.2 7.3 7.4 68 2.9 WSW 28 50 15 27 1009.2 1008.5 0.0
20/07:30am 14.3 8.7 7.1 62 3.6 WSW 26 39 14 21 1009.0 1008.2 0.0
20/07:00am 13.7 7.7 7.2 65 3.2 W 28 43 15 23 1008.8 1008.0 0.0
20/06:30am 14.2 9.5 7.9 66 3.2 W 22 32 12 17 1008.5 1007.7 0.0
20/06:00am 12.4 8.2 7.3 71 2.5 WNW 19 30 10 16 1008.2 1007.4 0.0
20/05:30am 10.8 6.9 6.9 77 1.9 WNW 17 26 9 14 1008.0 1007.2 0.0
20/05:00am 10.6 6.6 6.7 77 1.9 WNW 17 24 9 13 1007.8 1007.0 0.0
20/04:30am 10.8 6.4 6.7 76 2.0 WNW 19 24 10 13 1007.6 1006.8 0.0
20/04:00am 10.6 7.0 6.6 76 1.9 WNW 15 22 8 12 1007.0 1006.3 0.0
20/03:30am 10.8 7.2 6.6 75 2.0 WNW 15 20 8 11 1007.2 1006.4 0.0
20/03:00am 11.5 7.8 6.4 71 2.5 WNW 15 24 8 13 1007.3 1006.5 0.0
20/02:30am 12.2 8.9 6.5 68 2.8 W 13 20 7 11 1007.5 1006.7 0.0
20/02:00am 13.5 9.0 6.8 64 3.3 W 20 30 11 16 1007.7 1006.9 0.0
20/01:30am 13.7 8.4 6.8 63 3.4 WSW 24 35 13 19 1007.8 1007.0 0.0
20/01:00am 13.8 8.9 7.1 64 3.3 WSW 22 33 12 18 1007.7 1006.9 0.0
20/12:30am 14.1 13.1 11.1 82 1.6 SW 7 11 4 6 1007.8 1007.0 0.0
20/12:00am 13.9 12.9 11.1 83 1.5 SSW 7 13 4 7 1007.9 1007.1 0.0
 
Date/Time
WST
Temp
°C
App
Temp
°C
Dew
Point
°C
Rel
Hum
%
Delta-T
°C
Wind Press
QNH
hPa
Press
MSL
hPa
Rain since
9am
mm
Dir  Spd
km/h
Gust
km/h
Spd
kts
Gust
kts
19/11:30pm 14.3 12.8 11.8 85 1.4 SSW 11 17 6 9 1008.2 1007.4 0.0
19/11:00pm 14.3 13.0 12.5 89 1.0 SSW 11 15 6 8 1008.5 1007.7 0.0
19/10:30pm 14.1 12.9 12.7 91 0.8 S 11 19 6 10 1008.6 1007.8 0.0
19/10:00pm 14.2 12.2 12.6 90 0.9 S 15 20 8 11 1008.6 1007.8 0.0
19/09:30pm 14.5 12.9 12.7 89 1.0 S 13 20 7 11 1008.7 1007.9 0.0
19/09:00pm 15.3 13.3 12.8 85 1.4 S 15 24 8 13 1008.5 1007.7 0.0
19/08:30pm 15.5 13.5 12.8 84 1.5 S 15 20 8 11 1008.2 1007.4 0.0
19/08:00pm 15.6 14.2 13.3 86 1.3 SSE 13 19 7 10 1008.1 1007.3 0.0
19/07:30pm 15.4 13.6 13.4 88 1.1 S 15 26 8 14 1008.2 1007.4 0.0
19/07:00pm 15.7 13.0 13.4 86 1.3 S 20 35 11 19 1008.1 1007.3 0.0
19/06:30pm 17.1 14.2 12.8 76 2.4 S 20 30 11 16 1007.7 1006.9 0.0
19/06:00pm 17.9 14.9 12.6 71 3.0 S 20 35 11 19 1007.5 1006.7 0.0
19/05:30pm 19.1 15.3 12.4 65 3.8 S 24 37 13 20 1007.4 1006.6 0.0
19/05:00pm 20.5 16.2 12.2 59 4.7 S 26 35 14 19 1006.7 1006.0 0.0
19/04:30pm 21.5 18.1 12.6 57 5.1 S 22 35 12 19 1006.4 1005.7 0.0
19/04:00pm 24.1 20.8 12.7 49 6.7 SSE 22 35 12 19 1005.8 1005.0 0.0
19/03:30pm 24.9 23.0 11.8 44 7.5 SSE 13 22 7 12 1005.6 1004.8 0.0
19/03:00pm 26.1 23.1 11.8 41 8.3 S 19 24 10 13 1005.8 1005.0 0.0
19/02:30pm 26.8 24.0 10.1 35 9.4 S 15 26 8 14 1005.6 1004.8 0.0
19/02:00pm 27.2 25.3 10.4 35 9.6 SSW 11 17 6 9 1005.9 1005.1 0.0
19/01:30pm 25.8 23.9 10.4 38 8.7 S 11 24 6 13 1006.1 1005.3 0.0
19/01:00pm 26.6 24.3 11.9 40 8.6 S 15 26 8 14 1006.2 1005.4 0.0
19/12:30pm 25.6 23.7 11.7 42 8.0 SSW 13 22 7 12 1006.5 1005.8 0.0
19/12:00pm 24.2 22.6 11.5 45 7.3 SE 11 20 6 11 1006.8 1006.1 0.0
19/11:30am 23.4 22.2 11.5 47 6.8 ESE 9 20 5 11 1007.0 1006.3 0.0
19/11:00am 23.5 21.9 11.5 47 6.9 SE 11 20 6 11 1007.4 1006.6 0.0
19/10:30am 22.9 21.7 11.6 49 6.4 SE 9 19 5 10 1008.1 1007.3 0.0
19/10:00am 21.6 20.0 11.6 53 5.7 ESE 11 19 6 10 1008.6 1007.8 0.0
19/09:30am 20.2 18.6 11.4 57 4.9 ESE 11 20 6 11 1009.1 1008.3 0.0
19/09:00am 19.9 18.1 12.2 61 4.4 E 13 20 7 11 1009.4 1008.7 0.0
19/08:30am 18.4 16.5 11.7 65 3.7 E 13 20 7 11 1009.6 1008.9 0.0
19/08:00am 18.0 15.8 12.0 68 3.4 E 15 20 8 11 1010.1 1009.4 0.0
19/07:30am 16.8 14.3 12.3 75 2.5 E 17 22 9 12 1010.3 1009.6 0.0
19/07:00am 15.9 13.3 11.9 77 2.2 ESE 17 24 9 13 1010.6 1009.8 0.0
19/06:30am 15.1 12.5 12.1 82 1.7 ESE 17 20 9 11 1010.4 1009.7 0.0
19/06:00am 14.8 12.6 12.1 84 1.5 ESE 15 20 8 11 1010.4 1009.7 0.0
19/05:30am 14.4 12.1 11.9 85 1.4 ESE 15 20 8 11 1010.7 1009.9 0.0
19/05:00am 14.2 11.9 11.7 85 1.4 ESE 15 20 8 11 1010.8 1010.0 0.0
19/04:30am 14.2 11.5 11.7 85 1.4 E 17 24 9 13 1010.9 1010.1 0.0
19/04:00am 14.3 12.0 11.8 85 1.4 E 15 22 8 12 1011.0 1010.2 0.0
19/03:30am 14.4 11.8 12.1 86 1.3 ESE 17 22 9 12 1011.4 1010.6 0.0
19/03:00am 14.2 11.6 12.1 87 1.2 ESE 17 24 9 13 1011.3 1010.5 0.0
19/02:30am 14.2 12.4 12.1 87 1.2 E 13 19 7 10 1011.8 1011.0 0.0
19/02:00am 13.9 11.3 11.9 88 1.1 E 17 26 9 14 1012.5 1011.8 0.0
19/01:30am 13.8 11.1 11.8 88 1.1 ESE 17 24 9 13 1012.4 1011.7 0.0
19/01:00am 13.6 11.3 11.7 88 1.0 ESE 15 19 8 10 1012.5 1011.8 0.0
19/12:30am 13.2 11.5 11.3 88 1.0 ESE 11 20 6 11 1012.7 1012.0 0.0
19/12:00am 13.4 11.3 11.1 86 1.2 ESE 13 17 7 9 1013.3 1012.6 0.0
 
Date/Time
WST
Temp
°C
App
Temp
°C
Dew
Point
°C
Rel
Hum
%
Delta-T
°C
Wind Press
QNH
hPa
Press
MSL
hPa
Rain since
9am
mm
Dir  Spd
km/h
Gust
km/h
Spd
kts
Gust
kts
18/11:30pm 13.7 12.0 11.2 85 1.3 ESE 11 15 6 8 1013.7 1013.0 0.0
18/11:00pm 14.1 11.3 11.4 84 1.5 E 17 26 9 14 1014.4 1013.6 0.0
18/10:30pm 14.6 9.3 11.4 81 1.7 ENE 30 39 16 21 1016.1 1015.4 0.0
18/10:00pm 14.6 10.9 11.6 82 1.6 ENE 22 32 12 17 1016.6 1015.9 0.0
18/09:30pm 14.4 9.5 11.4 82 1.6 E 28 39 15 21 1016.5 1015.8 0.0
18/09:00pm 14.7 10.6 11.5 81 1.7 E 24 35 13 19 1017.0 1016.3 0.0
18/08:30pm 14.9 10.8 11.5 80 1.9 ESE 24 37 13 20 1017.0 1016.3 0.0
18/08:00pm 14.8 10.7 11.4 80 1.8 ESE 24 35 13 19 1016.9 1016.2 0.0
18/07:30pm 14.9 11.5 11.3 79 2.0 ESE 20 32 11 17 1016.9 1016.2 0.0
18/07:00pm 14.8 11.0 11.0 78 2.0 ESE 22 30 12 16 1016.8 1016.1 0.0
18/06:30pm 15.3 11.4 10.9 75 2.4 ESE 22 32 12 17 1016.7 1016.0 0.0
18/06:00pm 16.1 11.9 11.1 72 2.7 SE 24 33 13 18 1016.6 1015.9 0.0
18/05:30pm 17.1 12.9 11.2 68 3.2 ESE 24 33 13 18 1016.5 1015.8 0.0
18/05:00pm 18.2 13.7 11.3 64 3.8 SE 26 35 14 19 1016.5 1015.8 0.0
18/04:30pm 19.4 14.5 11.4 60 4.5 SE 28 37 15 20 1016.5 1015.8 0.0
18/04:00pm 21.0 16.9 11.3 54 5.4 ESE 24 32 13 17 1016.2 1015.5 0.0
18/03:30pm 22.2 18.1 11.3 50 6.1 ESE 24 33 13 18 1016.3 1015.6 0.0
18/03:00pm 22.6 19.1 11.0 48 6.5 ESE 20 30 11 16 1016.2 1015.5 0.0
18/02:30pm 23.3 19.4 10.7 45 7.1 ESE 22 30 12 16 1016.3 1015.6 0.0
18/02:00pm 24.6 21.0 10.5 41 7.9 ESE 20 32 11 17 1016.4 1015.7 0.0
18/01:30pm 24.6 20.2 10.5 41 7.9 ESE 24 35 13 19 1016.8 1016.1 0.0
18/01:00pm 25.2 21.5 10.3 39 8.4 SE 20 32 11 17 1016.9 1016.2 0.0
18/12:30pm 25.0 21.5 10.1 39 8.3 SE 19 28 10 15 1017.2 1016.5 0.0
18/12:00pm 24.0 20.4 9.9 41 7.8 ESE 19 28 10 15 1017.5 1016.7 0.0
18/11:30am 24.1 20.5 10.4 42 7.7 SE 20 32 11 17 1018.1 1017.4 0.0
18/11:00am 23.8 20.3 10.1 42 7.6 SE 19 28 10 15 1018.4 1017.7 0.0
18/10:30am 22.9 19.6 9.7 43 7.3 ESE 17 24 9 13 1018.6 1017.9 0.0
18/10:00am 22.3 19.3 10.5 47 6.6 SE 17 26 9 14 1018.7 1018.0 0.0

Other formats

Comma delimited format used in spreadsheet applications
http://www.bom.gov.au/fwo/IDW60801/IDW60801.95636.axf

JavaScript Object Notation format (JSON) in row-major order
http://www.bom.gov.au/fwo/IDW60801/IDW60801.95636.json

Data quality

Most of these data are generated automatically and are frequently updated. Quality checks on data are not normally performed. It is possible for incorrect values to appear. Refer to information at About Latest Weather Observations and please check the disclaimer before using these data.